Greensboro, NC

5:10 PM EDT on August 23, 2016 (GMT -0400)
UNCG | | Change Station

Elev 850 ft 36.06 °N, 79.81 °W | Updated 45 seconds ago

Scattered Clouds
Scattered Clouds
84.7 °F
Feels Like 85 °F
N
2.0
Wind Variable Wind from WSW
Gusts 18.0 mph

Today
High -- | Low -- °F
--% Chance of Precip.
Yesterday
High -- | Low -- °F
Precip. -- in
Pressure 30.22 in
Visibility 10.0 miles
Clouds Scattered Clouds 6500 ft
Scattered Clouds 25000 ft
Heat Index 85 °F
Dew Point 61 °F
Humidity 45%
Rainfall 0.00 in
Snow Depth Not available.
6:44 AM 7:58 PM
Waning Gibbous, 64% visible
METAR KGSO 232054Z 05004KT 10SM SCT065 SCT250 29/14 A3025 RMK AO2 SLP234 T02940144 56020
Pressure 30.22 in
Visibility 10.0 miles
Clouds Scattered Clouds 6500 ft
Scattered Clouds 25000 ft
Heat Index 85 °F
Dew Point 61 °F
Humidity 45%
Rainfall 0.00 in
Snow Depth Not available.
6:44 AM 7:58 PM
Waning Gibbous, 64% visible
METAR KGSO 232054Z 05004KT 10SM SCT065 SCT250 29/14 A3025 RMK AO2 SLP234 T02940144 56020
We continue to monitor Invest 99L for the possibility of development into a tropical depression or storm as it approaches the Lesser Antilles, then heads in the general direction of the Bahamas late in the week.

Invest 99L will potentially be impactful in the near-future as it spreads locally heavy rain into the Leeward Islands and eventually Puerto Rico. A flash flood watch is in effect for the Virgin Islands and Puerto Rico from overnight tonight until noon on Thursday.

10-Day Weather Forecast

Almanac

Astronomy

Aug. 23, 2016 Rise Set
Actual Time
Civil Twilight
Nautical Twilight
Astronomical Twilight
Moon
Length of Visible Light
Length of Day
Tomorrow will be .
, % of the Moon is Illuminated

Today's Extremes

State Highs State Lows

Community

WunderPhotos

Upload Photos

1,934,455 photos uploaded!

WunderBlog® & News

Nearby

Air Quality

  Air Quality AQ Index Pollutant
Not available.

Snow Depth

Station Depth Elevation

Earthquake Activity

City Distance Mag. Time & Date
Minimum magnitude displayed is 2.5.

Coastal Water Temperatures

Place Temperature

Stations

Nearby Weather Stations

Station Location Temp. Windchill Dew Point Humidity Wind Precip. Elev Updated Type
                   

Watches & Warnings

There are currently no watches in effect.